Time;durP1;ratioP1;P1;durP2;ratioP2;P2;SDS_P1;SDS_P2;PMS_P1;PMS_P2;Temp;Humidity;BMP_temperature;BMP_pressure;BME280_temperature;BME280_humidity;BME280_pressure;Samples;Min_cycle;Max_cycle;Signal;HPM_P1;HPM_P2
2024/03/10 00:00:14;;;;;;;59.90;36.13;;;3.80;89.10;;;;;;5076542;28;20187;-87
2024/03/10 00:02:43;;;;;;;54.53;35.37;;;3.80;89.20;;;;;;5094701;28;20227;-85
2024/03/10 00:05:12;;;;;;;56.00;36.50;;;3.80;89.30;;;;;;5076582;28;20196;-85
2024/03/10 00:07:38;;;;;;;69.73;40.53;;;3.80;89.30;;;;;;5076604;28;20175;-85
2024/03/10 00:10:04;;;;;;;68.83;38.33;;;3.80;89.40;;;;;;5076563;28;20171;-87
2024/03/10 00:12:30;;;;;;;55.27;36.30;;;3.70;89.30;;;;;;5094704;28;20198;-86
2024/03/10 00:14:55;;;;;;;57.67;36.47;;;3.70;89.50;;;;;;5094482;28;20194;-86
2024/03/10 00:17:21;;;;;;;65.97;38.50;;;3.70;89.60;;;;;;5076340;28;20172;-87
2024/03/10 00:19:48;;;;;;;60.30;34.30;;;3.70;89.60;;;;;;5076354;28;20610;-86
2024/03/10 00:22:14;;;;;;;60.27;37.77;;;3.60;89.70;;;;;;5076147;28;20208;-86
2024/03/10 00:24:40;;;;;;;62.70;38.10;;;3.70;89.90;;;;;;5076212;28;20199;-86
2024/03/10 00:27:05;;;;;;;58.20;36.80;;;3.70;89.80;;;;;;5094418;28;20648;-86
2024/03/10 00:29:31;;;;;;;55.80;36.47;;;3.60;89.80;;;;;;5076066;28;20168;-86
2024/03/10 00:31:56;;;;;;;59.10;36.33;;;3.60;89.90;;;;;;5076101;28;20203;-86
2024/03/10 00:34:22;;;;;;;58.33;36.47;;;3.60;90.00;;;;;;5094362;28;20175;-86
2024/03/10 00:36:48;;;;;;;61.30;37.30;;;3.60;89.90;;;;;;5076140;28;20184;-85
2024/03/10 00:39:14;;;;;;;63.67;39.40;;;3.60;89.90;;;;;;5076150;28;20186;-86
2024/03/10 00:41:39;;;;;;;57.47;38.20;;;3.60;90.00;;;;;;5094013;28;20234;-86
2024/03/10 00:44:05;;;;;;;64.23;39.97;;;3.60;90.00;;;;;;5076010;28;20172;-86
2024/03/10 00:46:31;;;;;;;68.77;39.37;;;3.60;90.00;;;;;;5075978;28;20292;-86
2024/03/10 00:48:56;;;;;;;54.87;35.00;;;3.60;90.10;;;;;;5093900;28;20167;-86
2024/03/10 00:51:22;;;;;;;63.63;37.63;;;3.60;90.10;;;;;;5075675;28;20172;-87
2024/03/10 00:53:47;;;;;;;73.50;41.40;;;3.50;90.10;;;;;;5075861;28;20202;-87
2024/03/10 00:56:18;;;;;;;67.67;39.50;;;3.60;90.20;;;;;;5093914;28;20171;-86
2024/03/10 00:58:44;;;;;;;66.67;39.80;;;3.60;90.10;;;;;;5075876;28;20178;-86
2024/03/10 01:01:09;;;;;;;67.87;40.77;;;3.50;90.10;;;;;;5093708;28;20163;-86
2024/03/10 01:03:35;;;;;;;63.87;36.80;;;3.50;90.20;;;;;;5093861;28;20686;-85
2024/03/10 01:06:02;;;;;;;66.73;39.83;;;3.50;90.40;;;;;;5075667;28;20171;-86
2024/03/10 01:08:27;;;;;;;60.67;37.17;;;3.50;90.30;;;;;;5093547;28;20159;-86
2024/03/10 01:10:53;;;;;;;65.77;40.27;;;3.50;90.40;;;;;;5075824;28;20194;-84
2024/03/10 01:13:19;;;;;;;66.73;43.00;;;3.60;90.40;;;;;;5075705;28;20199;-86
2024/03/10 01:15:44;;;;;;;62.53;36.27;;;3.50;90.30;;;;;;5093775;28;20543;-86
2024/03/10 01:18:10;;;;;;;66.20;39.60;;;3.50;90.40;;;;;;5093516;28;20608;-86
2024/03/10 01:20:36;;;;;;;59.50;37.27;;;3.50;90.30;;;;;;5075680;28;20257;-86
2024/03/10 01:23:03;;;;;;;68.67;43.87;;;3.50;90.40;;;;;;5093453;28;20201;-86
2024/03/10 01:25:28;;;;;;;61.37;39.90;;;3.50;90.40;;;;;;5075352;28;20181;-85
2024/03/10 01:27:54;;;;;;;65.07;38.93;;;3.60;90.40;;;;;;5075568;28;20174;-86
2024/03/10 01:30:20;;;;;;;67.13;45.87;;;3.60;90.40;;;;;;5093589;28;20221;-86
2024/03/10 01:32:46;;;;;;;75.93;47.13;;;3.60;90.40;;;;;;5093691;28;20659;-85
2024/03/10 01:35:12;;;;;;;63.67;45.47;;;3.50;90.40;;;;;;5075477;28;20184;-87
2024/03/10 01:37:38;;;;;;;68.03;47.23;;;3.50;90.40;;;;;;5093630;28;20175;-86
2024/03/10 01:40:06;;;;;;;76.83;49.63;;;3.50;90.50;;;;;;5093475;28;20662;-86
2024/03/10 01:42:32;;;;;;;64.53;39.37;;;3.50;90.50;;;;;;5093330;28;20229;-86
2024/03/10 01:44:59;;;;;;;61.63;40.33;;;3.50;90.50;;;;;;5093293;28;20262;-84
2024/03/10 01:47:25;;;;;;;70.07;45.90;;;3.50;90.60;;;;;;5075147;28;20176;-89
2024/03/10 01:49:52;;;;;;;68.97;46.00;;;3.50;90.80;;;;;;5093346;28;20159;-85
2024/03/10 01:52:17;;;;;;;66.30;45.77;;;3.50;90.60;;;;;;5074967;28;20698;-86
2024/03/10 01:54:44;;;;;;;71.60;46.63;;;3.50;90.70;;;;;;5075008;28;20179;-87
2024/03/10 01:57:10;;;;;;;69.47;46.10;;;3.50;90.80;;;;;;5093419;28;20196;-87
2024/03/10 01:59:38;;;;;;;63.63;46.53;;;3.50;90.90;;;;;;5093499;28;20168;-86
2024/03/10 02:02:04;;;;;;;59.43;41.73;;;3.50;90.90;;;;;;5093133;28;20288;-85
2024/03/10 02:04:31;;;;;;;68.37;44.57;;;3.50;90.80;;;;;;5093468;28;20302;-85
2024/03/10 02:06:57;;;;;;;74.60;46.40;;;3.50;90.90;;;;;;5093066;28;20664;-86
2024/03/10 02:09:23;;;;;;;72.40;46.53;;;3.50;90.90;;;;;;5092941;28;20167;-86
2024/03/10 02:11:48;;;;;;;66.30;45.37;;;3.50;91.00;;;;;;5075028;28;20575;-86
2024/03/10 02:14:16;;;;;;;72.07;47.80;;;3.40;91.00;;;;;;5093358;28;20191;-88
2024/03/10 02:16:41;;;;;;;65.53;46.03;;;3.40;91.00;;;;;;5074864;28;20183;-85
2024/03/10 02:19:07;;;;;;;69.87;47.43;;;3.40;91.10;;;;;;5093034;28;20180;-87
2024/03/10 02:21:33;;;;;;;68.73;47.97;;;3.40;91.10;;;;;;5096015;28;20168;-86
2024/03/10 02:24:16;;;;;;;70.17;40.57;;;3.40;91.20;;;;;;5096794;28;20183;-85
2024/03/10 02:26:46;;;;;;;70.23;44.27;;;3.40;91.30;;;;;;5096809;28;20234;-86
2024/03/10 02:29:15;;;;;;;67.77;43.03;;;3.40;91.20;;;;;;5078532;28;20639;-86
2024/03/10 02:48:09;;;;;;;65.10;45.40;;;3.20;91.40;;;;;;5096601;28;20543;-85
2024/03/10 02:50:35;;;;;;;70.67;44.67;;;3.20;91.40;;;;;;5096326;28;20169;-85
2024/03/10 02:53:01;;;;;;;75.93;46.43;;;3.20;91.60;;;;;;5096097;28;20636;-85
2024/03/10 02:55:26;;;;;;;74.67;47.57;;;3.20;91.70;;;;;;5096136;28;20171;-86
2024/03/10 02:57:52;;;;;;;70.57;46.63;;;3.20;91.60;;;;;;5096251;28;20173;-86
2024/03/10 03:00:18;;;;;;;72.13;46.70;;;3.20;91.70;;;;;;5078012;28;20183;-89
2024/03/10 03:02:44;;;;;;;71.13;47.37;;;3.10;91.70;;;;;;5095833;28;20206;-85
2024/03/10 03:05:11;;;;;;;68.27;45.93;;;3.10;91.70;;;;;;5078150;28;20207;-86
2024/03/10 03:07:36;;;;;;;60.47;38.43;;;3.10;91.80;;;;;;5078091;28;20170;-86
2024/03/10 03:10:02;;;;;;;67.43;40.07;;;3.10;91.80;;;;;;5095931;28;20257;-86
2024/03/10 03:12:27;;;;;;;67.57;43.47;;;3.10;91.80;;;;;;5095786;28;20229;-86
2024/03/10 03:14:53;;;;;;;65.57;38.80;;;3.10;91.80;;;;;;5095782;28;20547;-85
2024/03/10 03:17:18;;;;;;;69.40;41.47;;;3.10;91.80;;;;;;5095841;28;20170;-85
2024/03/10 03:19:44;;;;;;;66.77;42.13;;;3.00;91.90;;;;;;5095683;28;20174;-86
2024/03/10 03:22:10;;;;;;;71.00;43.13;;;3.10;92.00;;;;;;5095907;28;20202;-86
2024/03/10 03:24:36;;;;;;;68.97;41.47;;;3.10;91.90;;;;;;5077999;28;20236;-86
2024/03/10 03:27:03;;;;;;;67.17;41.73;;;3.10;91.90;;;;;;5096627;28;20167;-87
2024/03/10 03:29:28;;;;;;;68.37;41.77;;;3.00;91.90;;;;;;5096959;28;20253;-88
2024/03/10 03:31:54;;;;;;;75.40;42.60;;;3.00;91.90;;;;;;5078052;28;20218;-88
2024/03/10 03:34:21;;;;;;;69.37;41.23;;;3.00;91.90;;;;;;5078568;28;20183;-86
2024/03/10 03:36:46;;;;;;;65.97;38.60;;;3.00;91.80;;;;;;5096635;28;20171;-87
2024/03/10 03:39:13;;;;;;;71.23;40.63;;;3.00;91.90;;;;;;5097142;28;20554;-87
2024/03/10 03:41:39;;;;;;;64.47;38.87;;;3.00;92.00;;;;;;5078160;28;20175;-86
2024/03/10 03:44:05;;;;;;;77.33;43.97;;;3.00;92.00;;;;;;5096681;28;20175;-87
2024/03/10 03:46:30;;;;;;;68.57;34.53;;;2.90;92.00;;;;;;5078545;28;20634;-87
2024/03/10 03:48:56;;;;;;;76.30;43.17;;;3.00;92.10;;;;;;5078243;28;20253;-86
2024/03/10 03:51:22;;;;;;;70.43;43.10;;;3.00;92.10;;;;;;5077998;28;20176;-86
2024/03/10 03:53:48;;;;;;;72.33;41.87;;;3.00;92.10;;;;;;5078303;28;20175;-88
2024/03/10 03:56:14;;;;;;;70.93;43.07;;;2.90;92.10;;;;;;5078369;28;20186;-87
2024/03/10 03:58:41;;;;;;;66.43;37.60;;;2.90;92.10;;;;;;5079142;28;20608;-85
2024/03/10 04:01:06;;;;;;;70.60;43.70;;;2.90;92.10;;;;;;5096593;28;20209;-85
2024/03/10 04:03:32;;;;;;;73.07;44.07;;;3.00;92.20;;;;;;5078139;28;20211;-86
2024/03/10 04:05:58;;;;;;;70.63;43.90;;;3.00;92.10;;;;;;5096745;28;20186;-86
2024/03/10 04:08:23;;;;;;;70.47;42.87;;;2.90;92.00;;;;;;5096291;28;20170;-88
2024/03/10 04:10:50;;;;;;;76.03;43.53;;;3.00;92.00;;;;;;5096416;28;20301;-87
2024/03/10 04:13:16;;;;;;;70.17;41.43;;;2.90;92.00;;;;;;5096326;28;20578;-86
2024/03/10 04:15:41;;;;;;;71.60;41.27;;;3.00;92.00;;;;;;5096252;28;20174;-86
2024/03/10 04:18:07;;;;;;;72.57;43.23;;;3.00;92.10;;;;;;5077577;28;20183;-88
2024/03/10 04:20:33;;;;;;;69.50;42.90;;;3.00;92.10;;;;;;5077848;28;20538;-86
2024/03/10 04:22:59;;;;;;;80.87;43.30;;;3.00;92.10;;;;;;5077843;28;20221;-85
2024/03/10 04:25:25;;;;;;;68.00;41.97;;;3.10;92.10;;;;;;5095970;28;20612;-87
2024/03/10 04:27:52;;;;;;;67.57;40.03;;;3.10;92.00;;;;;;5096208;28;20246;-87
2024/03/10 04:30:19;;;;;;;77.20;43.10;;;3.10;91.90;;;;;;5096156;28;20185;-86
2024/03/10 04:32:44;;;;;;;74.50;48.87;;;3.00;91.80;;;;;;5077702;28;20198;-88
2024/03/10 04:35:11;;;;;;;78.83;48.63;;;3.00;91.90;;;;;;5097094;28;20240;-87
2024/03/10 04:37:37;;;;;;;79.53;50.80;;;3.00;92.00;;;;;;5077550;28;20174;-86
2024/03/10 04:40:06;;;;;;;72.90;47.30;;;2.90;92.00;;;;;;5095644;28;20285;-87
2024/03/10 04:42:34;;;;;;;82.10;43.87;;;3.00;92.10;;;;;;5094971;28;20713;-87
2024/03/10 04:44:59;;;;;;;72.43;39.87;;;3.00;92.10;;;;;;5095718;28;20169;-87
2024/03/10 04:47:25;;;;;;;66.10;44.67;;;3.00;92.00;;;;;;5095819;28;20642;-87
2024/03/10 04:49:50;;;;;;;77.23;49.00;;;3.00;92.00;;;;;;5096074;28;20171;-88
2024/03/10 04:52:16;;;;;;;81.77;51.67;;;3.00;92.00;;;;;;5078082;28;20213;-87
2024/03/10 04:54:41;;;;;;;76.37;47.77;;;3.00;92.00;;;;;;5096448;28;20178;-87
2024/03/10 04:57:07;;;;;;;73.77;49.73;;;3.00;92.00;;;;;;5096782;28;20183;-86
2024/03/10 04:59:35;;;;;;;71.10;49.87;;;3.00;92.00;;;;;;5096261;28;20179;-88
2024/03/10 05:02:00;;;;;;;79.00;53.43;;;3.10;92.00;;;;;;5096236;28;20198;-88
2024/03/10 05:04:26;;;;;;;82.40;50.30;;;3.10;91.90;;;;;;5096247;28;20170;-87
2024/03/10 05:06:51;;;;;;;68.73;48.53;;;3.10;91.90;;;;;;5096362;28;20682;-87
2024/03/10 05:09:17;;;;;;;79.27;48.63;;;3.10;91.90;;;;;;5096263;28;20316;-87
2024/03/10 05:11:43;;;;;;;79.53;49.30;;;3.20;91.90;;;;;;5096401;28;20183;-88
2024/03/10 05:14:08;;;;;;;67.73;45.63;;;3.20;91.90;;;;;;5079519;28;20695;-86
2024/03/10 05:16:34;;;;;;;71.67;48.23;;;3.20;91.70;;;;;;5096849;28;20171;-88
2024/03/10 05:18:59;;;;;;;76.37;50.63;;;3.30;91.70;;;;;;5096345;28;20538;-86
2024/03/10 05:21:25;;;;;;;76.53;49.53;;;3.20;91.60;;;;;;5077170;28;20163;-86
2024/03/10 05:23:51;;;;;;;76.23;47.73;;;3.30;91.60;;;;;;5078218;28;20226;-87
2024/03/10 05:26:17;;;;;;;68.53;46.03;;;3.30;91.50;;;;;;5096500;28;20167;-85
2024/03/10 05:28:42;;;;;;;67.00;40.97;;;3.30;91.50;;;;;;5078358;28;20166;-87
2024/03/10 05:31:26;;;;;;;70.07;41.90;;;3.40;91.50;;;;;;5096946;28;20170;-86
2024/03/10 05:33:51;;;;;;;69.87;42.53;;;3.40;91.30;;;;;;5097183;28;20530;-88
2024/03/10 05:36:17;;;;;;;71.00;43.50;;;3.40;91.30;;;;;;5097426;28;20175;-88
2024/03/10 05:38:42;;;;;;;76.10;43.57;;;3.40;91.20;;;;;;5096831;28;20182;-87
2024/03/10 05:41:09;;;;;;;67.30;39.20;;;3.40;91.20;;;;;;5078380;28;20182;-87
2024/03/10 05:43:34;;;;;;;68.20;42.17;;;3.50;91.30;;;;;;5096615;28;20617;-87
2024/03/10 05:46:00;;;;;;;66.90;39.87;;;3.50;91.20;;;;;;5078620;28;20288;-86
2024/03/10 05:48:26;;;;;;;69.93;43.03;;;3.50;91.10;;;;;;5097416;28;20218;-88
2024/03/10 05:50:52;;;;;;;68.77;42.03;;;3.50;91.00;;;;;;5097647;28;20179;-88
2024/03/10 05:53:18;;;;;;;67.53;42.47;;;3.40;91.00;;;;;;5078741;28;20213;-86
2024/03/10 05:55:43;;;;;;;68.17;40.97;;;3.40;91.00;;;;;;5100410;28;20246;-88
2024/03/10 05:58:09;;;;;;;70.60;43.27;;;3.40;91.10;;;;;;5100428;28;20175;-86
2024/03/10 06:00:36;;;;;;;64.37;39.00;;;3.50;91.20;;;;;;5081619;28;20178;-86
2024/03/10 06:03:02;;;;;;;59.07;36.80;;;3.50;91.20;;;;;;5100271;28;20232;-88
2024/03/10 06:05:27;;;;;;;67.17;39.70;;;3.50;91.00;;;;;;5082128;28;20244;-87
2024/03/10 06:07:53;;;;;;;62.37;37.07;;;3.50;91.00;;;;;;5099854;28;20188;-86
2024/03/10 06:10:21;;;;;;;67.17;40.43;;;3.60;91.00;;;;;;5082063;28;20578;-86
2024/03/10 06:12:46;;;;;;;73.30;41.77;;;3.60;91.00;;;;;;5101084;28;20260;-87
2024/03/10 06:15:16;;;;;;;65.07;39.10;;;3.60;91.00;;;;;;5083092;28;20197;-86
2024/03/10 06:17:50;;;;;;;64.57;37.27;;;3.70;91.00;;;;;;5100768;28;20163;-87
2024/03/10 06:25:45;;;;;;;54.80;35.83;;;3.80;90.70;;;;;;5099677;28;20162;-87
2024/03/10 06:28:10;;;;;;;62.40;39.10;;;3.80;90.70;;;;;;5099522;28;20171;-87
2024/03/10 06:30:36;;;;;;;56.17;35.37;;;3.80;90.70;;;;;;5081561;28;20179;-86
2024/03/10 06:33:01;;;;;;;66.50;40.17;;;3.80;90.70;;;;;;5099193;28;20687;-89
2024/03/10 06:35:27;;;;;;;58.30;36.07;;;3.90;90.70;;;;;;5080846;28;20177;-87
2024/03/10 06:37:56;;;;;;;61.17;37.90;;;3.90;90.70;;;;;;5080709;28;20178;-88
2024/03/10 06:40:21;;;;;;;49.77;32.70;;;3.90;90.60;;;;;;5100106;28;20170;-88
2024/03/10 06:42:47;;;;;;;59.17;37.13;;;3.90;90.50;;;;;;5100022;28;20204;-87
2024/03/10 06:45:15;;;;;;;50.07;31.53;;;4.00;90.40;;;;;;5100473;28;20173;-87
2024/03/10 06:47:41;;;;;;;59.47;36.93;;;4.10;90.30;;;;;;5100412;28;20171;-87
2024/03/10 06:50:09;;;;;;;55.93;35.93;;;4.10;90.20;;;;;;5099242;28;20590;-85
2024/03/10 06:52:35;;;;;;;50.83;32.10;;;4.20;90.10;;;;;;5098388;28;20209;-85
2024/03/10 06:55:01;;;;;;;47.57;33.20;;;4.30;90.00;;;;;;5098592;28;20177;-86
2024/03/10 06:57:27;;;;;;;62.93;39.40;;;4.30;89.80;;;;;;5100236;28;20184;-87
2024/03/10 06:59:53;;;;;;;58.03;35.73;;;4.40;89.70;;;;;;5081747;28;20212;-89
2024/03/10 07:02:22;;;;;;;51.47;33.97;;;4.40;89.60;;;;;;5082483;28;20224;-88
2024/03/10 07:04:47;;;;;;;53.00;31.73;;;4.50;89.40;;;;;;5081450;28;20233;-88
2024/03/10 07:07:13;;;;;;;49.10;33.60;;;4.50;89.20;;;;;;5098965;28;20189;-87
2024/03/10 07:09:40;;;;;;;52.60;32.93;;;4.60;89.10;;;;;;5100063;28;20169;-86
2024/03/10 07:12:06;;;;;;;54.03;35.43;;;4.70;88.90;;;;;;5081368;28;20287;-86
2024/03/10 07:14:33;;;;;;;42.00;28.37;;;4.70;88.80;;;;;;5081701;28;20207;-87
2024/03/10 07:16:58;;;;;;;51.47;30.00;;;4.70;88.70;;;;;;5099746;28;20181;-86
2024/03/10 07:19:24;;;;;;;53.93;32.53;;;4.80;88.50;;;;;;5095767;28;20727;-87
2024/03/10 07:21:50;;;;;;;48.63;32.23;;;4.90;88.50;;;;;;5077931;28;20661;-87
2024/03/10 07:24:15;;;;;;;49.07;33.23;;;4.90;88.40;;;;;;5077946;28;20206;-88
2024/03/10 07:26:41;;;;;;;67.60;38.93;;;4.90;88.30;;;;;;5077720;28;20185;-87
2024/03/10 07:29:07;;;;;;;48.90;31.90;;;5.00;88.10;;;;;;5077670;28;20194;-87
2024/03/10 07:31:33;;;;;;;54.17;36.03;;;5.00;88.20;;;;;;5095452;28;20645;-87
2024/03/10 07:33:59;;;;;;;55.73;38.30;;;5.10;88.00;;;;;;5096247;28;20213;-88
2024/03/10 07:36:26;;;;;;;59.17;40.10;;;5.10;87.90;;;;;;5095609;28;20182;-86
2024/03/10 07:38:56;;;;;;;55.17;37.80;;;5.20;87.70;;;;;;5095786;28;20181;-87
2024/03/10 07:41:21;;;;;;;55.07;38.83;;;5.20;87.70;;;;;;5077651;28;20556;-87
2024/03/10 07:43:47;;;;;;;55.53;39.03;;;5.30;87.50;;;;;;5095388;28;20289;-87
2024/03/10 07:46:13;;;;;;;63.53;43.23;;;5.40;87.20;;;;;;5077337;28;20177;-86
2024/03/10 07:48:39;;;;;;;56.03;41.07;;;5.40;87.20;;;;;;5095638;28;20182;-86
2024/03/10 07:51:05;;;;;;;63.00;45.10;;;5.50;87.20;;;;;;5077535;28;20641;-86
2024/03/10 07:53:30;;;;;;;54.73;39.93;;;5.50;87.20;;;;;;5077760;28;20704;-87
2024/03/10 07:55:57;;;;;;;62.67;39.47;;;5.50;87.10;;;;;;5077221;28;20214;-87
2024/03/10 07:58:25;;;;;;;54.67;41.27;;;5.60;86.90;;;;;;5077382;28;20634;-86
2024/03/10 08:00:51;;;;;;;56.80;40.60;;;5.60;86.80;;;;;;5095748;28;20202;-84
2024/03/10 08:03:16;;;;;;;52.60;37.43;;;5.70;87.00;;;;;;5094992;28;20237;-87
2024/03/10 08:05:43;;;;;;;54.33;37.43;;;5.80;86.90;;;;;;5076994;28;20185;-86
2024/03/10 08:08:08;;;;;;;49.87;38.87;;;5.80;86.40;;;;;;5077099;28;20311;-87
2024/03/10 08:10:34;;;;;;;55.90;38.47;;;5.80;86.10;;;;;;5094990;28;20200;-87
2024/03/10 08:13:01;;;;;;;62.97;40.83;;;5.90;86.00;;;;;;5076501;28;20230;-87
2024/03/10 08:15:26;;;;;;;54.53;38.80;;;6.00;85.80;;;;;;5077023;28;20186;-88
2024/03/10 08:17:52;;;;;;;48.63;37.93;;;6.10;85.90;;;;;;5095351;28;20263;-87
2024/03/10 08:20:19;;;;;;;60.03;39.73;;;6.20;85.50;;;;;;5095622;28;20352;-87
2024/03/10 08:22:45;;;;;;;56.50;40.80;;;6.20;85.10;;;;;;5077351;28;20625;-87
2024/03/10 08:25:11;;;;;;;49.67;37.57;;;6.30;85.40;;;;;;5095592;28;20250;-87
2024/03/10 08:27:36;;;;;;;49.53;38.60;;;6.40;85.20;;;;;;5094911;28;20202;-89
2024/03/10 08:30:09;;;;;;;52.60;41.23;;;6.40;84.80;;;;;;5077236;28;20178;-87
2024/03/10 08:32:36;;;;;;;55.03;41.17;;;6.50;84.50;;;;;;5095527;28;20268;-88
2024/03/10 08:35:07;;;;;;;56.73;40.73;;;6.60;84.70;;;;;;5095437;28;20232;-87
2024/03/10 08:37:36;;;;;;;49.00;36.80;;;6.70;84.50;;;;;;5076740;28;20178;-88
2024/03/10 08:40:10;;;;;;;63.17;43.17;;;6.80;84.20;;;;;;5095002;28;20542;-86
2024/03/10 08:42:41;;;;;;;55.57;38.60;;;6.90;84.10;;;;;;5076438;28;20202;-86
2024/03/10 08:45:10;;;;;;;45.57;34.50;;;7.00;84.50;;;;;;5077230;28;20208;-86
2024/03/10 08:47:39;;;;;;;55.97;41.17;;;7.00;83.70;;;;;;5095283;28;20540;-89
2024/03/10 08:50:08;;;;;;;48.73;34.73;;;7.10;83.90;;;;;;5077086;28;20206;-87
2024/03/10 08:52:34;;;;;;;47.73;34.43;;;7.10;83.20;;;;;;5076809;28;20744;-87
2024/03/10 08:55:00;;;;;;;43.87;34.60;;;7.10;83.00;;;;;;5094838;28;20178;-86
2024/03/10 08:57:27;;;;;;;51.33;38.60;;;7.20;83.00;;;;;;5094888;28;20533;-87
2024/03/10 08:59:54;;;;;;;44.40;31.73;;;7.20;83.10;;;;;;5094970;28;20575;-86
2024/03/10 09:02:19;;;;;;;46.27;37.30;;;7.20;82.70;;;;;;5094014;28;20198;-86
2024/03/10 09:04:45;;;;;;;56.37;41.30;;;7.20;83.00;;;;;;5094290;28;20177;-86
2024/03/10 09:07:10;;;;;;;42.63;36.73;;;7.20;83.10;;;;;;5094555;28;20185;-89
2024/03/10 09:09:36;;;;;;;61.57;42.13;;;7.30;82.80;;;;;;5094603;28;20170;-89
2024/03/10 09:12:01;;;;;;;46.27;36.47;;;7.30;82.70;;;;;;5094359;28;20195;-86
2024/03/10 09:14:29;;;;;;;52.57;38.50;;;7.30;82.40;;;;;;5094254;28;20182;-89
2024/03/10 09:16:54;;;;;;;53.37;43.30;;;7.30;82.20;;;;;;5076433;28;20223;-87
2024/03/10 09:19:20;;;;;;;56.03;43.53;;;7.50;82.50;;;;;;5094701;28;20174;-87
2024/03/10 09:21:45;;;;;;;48.83;35.83;;;7.60;82.60;;;;;;5094583;28;20195;-87
2024/03/10 09:24:14;;;;;;;52.27;40.73;;;7.70;82.20;;;;;;5076001;28;20183;-87
2024/03/10 09:26:44;;;;;;;55.70;43.57;;;7.70;81.80;;;;;;5076288;28;20178;-86
2024/03/10 09:29:09;;;;;;;48.27;38.80;;;7.80;81.80;;;;;;5097018;28;20253;-86
2024/03/10 09:31:37;;;;;;;44.80;39.20;;;7.90;81.10;;;;;;5101643;28;20198;-87
2024/03/10 09:34:03;;;;;;;50.97;42.63;;;7.90;81.10;;;;;;5101418;28;20180;-85
2024/03/10 09:36:30;;;;;;;55.07;41.50;;;8.00;81.10;;;;;;5101347;28;20178;-86
2024/03/10 09:38:55;;;;;;;49.43;39.27;;;8.10;81.50;;;;;;5082449;28;20551;-88
2024/03/10 09:41:21;;;;;;;48.33;39.37;;;8.20;80.70;;;;;;5100599;28;20253;-88
2024/03/10 09:43:50;;;;;;;53.10;41.07;;;8.30;80.20;;;;;;5100847;28;20190;-87
2024/03/10 09:46:17;;;;;;;47.43;38.63;;;8.30;80.10;;;;;;5100906;28;20684;-87
2024/03/10 09:48:45;;;;;;;49.63;38.83;;;8.50;79.90;;;;;;5100737;28;20243;-87
2024/03/10 09:51:14;;;;;;;50.23;40.27;;;8.70;79.90;;;;;;5082555;28;20213;-88
2024/03/10 09:53:40;;;;;;;49.37;40.47;;;8.80;79.00;;;;;;5100640;28;20190;-87
2024/03/10 09:56:07;;;;;;;49.00;39.70;;;8.90;78.60;;;;;;5100500;28;20194;-88
2024/03/10 09:58:50;;;;;;;45.90;38.73;;;9.20;78.90;;;;;;5100415;28;20296;-88
2024/03/10 10:01:20;;;;;;;48.37;42.47;;;9.20;77.70;;;;;;5082547;28;20198;-87
2024/03/10 10:03:52;;;;;;;52.30;39.70;;;9.40;78.40;;;;;;5101004;28;20210;-88
2024/03/10 10:06:19;;;;;;;49.93;40.60;;;9.70;78.50;;;;;;5101020;28;20229;-88
2024/03/10 10:08:50;;;;;;;45.27;37.80;;;9.70;77.00;;;;;;5083050;28;20267;-87
2024/03/10 10:11:18;;;;;;;46.83;39.10;;;9.80;76.30;;;;;;5100622;28;20155;-86
2024/03/10 10:14:03;;;;;;;52.07;42.00;;;9.80;75.50;;;;;;5100264;28;20543;-86
2024/03/10 10:16:29;;;;;;;45.53;40.23;;;9.80;75.70;;;;;;5100013;28;20178;-87
2024/03/10 10:18:54;;;;;;;52.90;44.27;;;9.90;76.10;;;;;;5100738;28;20173;-88
2024/03/10 10:21:24;;;;;;;50.33;40.43;;;10.00;75.40;;;;;;5082258;28;20175;-87
2024/03/10 10:23:51;;;;;;;46.03;39.67;;;10.10;75.90;;;;;;5082003;28;20198;-86
2024/03/10 10:26:17;;;;;;;47.33;40.47;;;10.20;75.30;;;;;;5082292;28;20175;-86
2024/03/10 10:28:42;;;;;;;42.63;38.13;;;10.30;74.80;;;;;;5100346;28;20166;-88
2024/03/10 10:31:16;;;;;;;48.60;43.20;;;10.20;74.70;;;;;;5100555;28;20547;-87
2024/03/10 10:33:45;;;;;;;44.80;39.53;;;10.20;74.70;;;;;;5100330;28;20225;-87
2024/03/10 10:36:11;;;;;;;46.67;41.47;;;10.20;74.10;;;;;;5082267;28;20270;-87
2024/03/10 10:38:44;;;;;;;40.30;36.10;;;10.20;74.20;;;;;;5100272;28;20179;-86
2024/03/10 10:41:09;;;;;;;46.37;39.10;;;10.20;73.70;;;;;;5078850;28;20175;-87
2024/03/10 10:43:38;;;;;;;46.47;41.43;;;10.30;73.60;;;;;;5096914;28;20579;-87
2024/03/10 10:46:12;;;;;;;41.77;37.27;;;10.30;73.10;;;;;;5078467;28;20170;-86
2024/03/10 10:48:39;;;;;;;45.57;40.83;;;10.40;72.80;;;;;;5078813;28;20638;-86
2024/03/10 10:51:09;;;;;;;42.00;37.57;;;10.50;73.90;;;;;;5078620;28;20182;-86
2024/03/10 10:53:38;;;;;;;45.93;41.20;;;10.70;73.10;;;;;;5096670;28;20206;-87
2024/03/10 10:56:04;;;;;;;49.60;44.07;;;10.70;72.40;;;;;;5078368;28;20654;-86
2024/03/10 10:58:33;;;;;;;47.13;42.13;;;10.80;73.50;;;;;;5096553;28;20167;-86
2024/03/10 11:01:07;;;;;;;42.70;38.37;;;11.00;72.70;;;;;;5078387;28;20186;-87
2024/03/10 11:03:36;;;;;;;46.93;41.43;;;10.90;70.20;;;;;;5096681;28;20218;-88
2024/03/10 11:06:01;;;;;;;46.27;41.37;;;10.90;72.00;;;;;;5078129;28;20224;-87
2024/03/10 11:08:28;;;;;;;44.47;39.10;;;10.90;73.90;;;;;;5096877;28;20167;-88
2024/03/10 11:10:54;;;;;;;47.17;42.23;;;11.00;72.60;;;;;;5078369;28;20170;-87
2024/03/10 11:13:22;;;;;;;41.53;37.23;;;11.00;71.30;;;;;;5078135;28;20194;-87
2024/03/10 11:16:02;;;;;;;43.60;38.73;;;11.10;71.80;;;;;;5096649;28;20219;-88
2024/03/10 11:18:28;;;;;;;46.20;38.47;;;11.10;70.80;;;;;;5096242;28;20622;-87
2024/03/10 11:20:58;;;;;;;45.00;40.40;;;11.00;70.90;;;;;;5096191;28;20166;-86
2024/03/10 11:23:28;;;;;;;43.97;38.87;;;11.00;71.10;;;;;;5077944;28;20293;-88
2024/03/10 11:25:54;;;;;;;42.27;37.87;;;11.00;70.80;;;;;;5078210;28;20170;-87
2024/03/10 11:28:25;;;;;;;39.50;34.13;;;11.10;70.90;;;;;;5096146;28;20250;-87
2024/03/10 11:30:57;;;;;;;46.40;41.53;;;11.20;70.60;;;;;;5096544;28;20242;-87
2024/03/10 11:33:23;;;;;;;46.17;41.27;;;11.20;70.50;;;;;;5078876;28;20592;-88
2024/03/10 11:35:51;;;;;;;43.43;38.87;;;11.30;70.80;;;;;;5077998;28;20205;-88
2024/03/10 11:38:18;;;;;;;44.47;39.77;;;11.30;69.30;;;;;;5077891;28;20179;-87
2024/03/10 11:40:44;;;;;;;43.80;39.47;;;11.40;69.80;;;;;;5096036;28;20249;-88
2024/03/10 11:43:13;;;;;;;44.13;39.73;;;11.40;70.30;;;;;;5078052;28;20279;-86
2024/03/10 11:45:40;;;;;;;41.20;36.77;;;11.30;71.00;;;;;;5096076;28;20174;-88
2024/03/10 11:48:07;;;;;;;44.07;39.67;;;11.30;69.60;;;;;;5096553;28;20162;-88
2024/03/10 11:50:33;;;;;;;44.93;40.27;;;11.30;69.80;;;;;;5095893;28;20167;-87
2024/03/10 11:52:58;;;;;;;40.63;36.23;;;11.30;70.30;;;;;;5095392;28;20263;-87
2024/03/10 11:55:24;;;;;;;44.50;40.17;;;11.30;69.70;;;;;;5096070;28;20173;-88
2024/03/10 11:57:53;;;;;;;42.03;37.80;;;11.20;70.30;;;;;;5077857;28;20228;-87
2024/03/10 12:00:21;;;;;;;49.40;44.30;;;11.10;70.80;;;;;;5096170;28;20171;-88
2024/03/10 12:02:49;;;;;;;46.33;41.40;;;11.20;71.50;;;;;;5077375;28;20206;-88
2024/03/10 12:05:18;;;;;;;41.47;36.93;;;11.30;70.40;;;;;;5095468;28;20171;-88
2024/03/10 12:07:50;;;;;;;45.03;40.13;;;11.50;69.60;;;;;;5095463;28;20163;-87
2024/03/10 12:10:17;;;;;;;48.57;37.87;;;11.50;70.20;;;;;;5076801;28;20177;-87
2024/03/10 12:12:50;;;;;;;42.77;38.37;;;11.30;69.20;;;;;;5095224;28;20284;-87
2024/03/10 12:15:17;;;;;;;39.47;35.70;;;11.30;70.10;;;;;;5095162;28;20175;-87
2024/03/10 12:17:49;;;;;;;49.67;44.27;;;11.30;69.60;;;;;;5095805;28;20170;-86
2024/03/10 12:20:15;;;;;;;43.40;38.80;;;11.40;70.60;;;;;;5076960;28;20579;-88
2024/03/10 12:22:43;;;;;;;41.27;37.17;;;11.60;70.10;;;;;;5076968;28;20229;-87
2024/03/10 12:25:10;;;;;;;46.77;41.90;;;11.70;69.60;;;;;;5076847;28;20228;-87
2024/03/10 12:27:39;;;;;;;45.17;40.57;;;11.60;69.60;;;;;;5076872;28;20171;-87
2024/03/10 12:30:12;;;;;;;50.00;44.70;;;11.70;69.90;;;;;;5077095;28;20524;-87
2024/03/10 12:32:44;;;;;;;50.50;45.37;;;11.80;70.00;;;;;;5094618;28;20274;-86
2024/03/10 12:35:10;;;;;;;47.00;42.30;;;11.80;69.30;;;;;;5076575;28;20205;-87
2024/03/10 12:37:40;;;;;;;45.03;40.53;;;11.90;69.30;;;;;;5094597;28;20174;-90
2024/03/10 12:40:14;;;;;;;45.20;40.80;;;12.00;69.30;;;;;;5076015;28;20175;-90
2024/03/10 12:42:43;;;;;;;48.07;41.63;;;11.90;68.70;;;;;;5076130;28;20680;-91
2024/03/10 12:45:15;;;;;;;41.53;37.23;;;11.80;68.90;;;;;;5076308;28;20194;-90
2024/03/10 12:47:43;;;;;;;45.73;41.37;;;11.70;68.20;;;;;;5094581;28;20151;-91
2024/03/10 12:50:09;;;;;;;49.73;44.40;;;11.70;69.80;;;;;;5076010;28;20262;-91
2024/03/10 12:52:35;;;;;;;44.90;40.23;;;11.70;69.90;;;;;;5075961;28;20248;-91
2024/03/10 12:55:00;;;;;;;44.13;39.50;;;11.70;69.10;;;;;;5094573;28;20188;-90